Goch-Asperden Airport

EDLG · Renania Settentrionale-Vestfalia, Germania

Storia di METAR EDLG · Goch-Asperden Airport

Di seguito sono riportati i METAR degli ultimi giorni. Seleziona un anno per sfogliare i METAR più vecchi, dall'anno 2007 in poi.

26 novembre 2022

Tempo Codice Tempo metereologico Temp. Vista Base nuvolosa Vento METAR/SPECI
23:20
V
6 °C 10 km+ - 150° 150° 7 kt METAR EDLV 262220Z 15007KT CAVOK 06/04 Q1026
22:50
V
7 °C 10 km+ - 150° 150° 7 kt METAR EDLV 262150Z 15007KT CAVOK 07/05 Q1027
22:20
V
7 °C 10 km+ - 160° 160° 6 kt METAR EDLV 262120Z 16006KT CAVOK 07/05 Q1028
21:50
V
7 °C 10 km+ - 170° 170° 7 kt METAR EDLV 262050Z 17007KT 150V210 CAVOK 07/05 Q1028
21:20
V
7 °C 10 km+ - 160° 160° 6 kt METAR EDLV 262020Z 16006KT CAVOK 07/05 Q1027
20:50
V
7 °C 10 km+ - 150° 150° 6 kt METAR EDLV 261950Z 15006KT CAVOK 07/06 Q1027
20:20
V
7 °C 10 km+ - 150° 150° 6 kt METAR EDLV 261920Z 15006KT CAVOK 07/06 Q1027
19:50
V
7 °C 10 km+ - 160° 160° 6 kt METAR EDLV 261850Z 16006KT CAVOK 07/06 Q1028
19:20
V
7 °C 10 km+ - 160° 160° 6 kt METAR EDLV 261820Z 16006KT CAVOK 07/06 Q1028
18:50
V
8 °C 10 km+ - 180° 180° 5 kt METAR EDLV 261750Z 18005KT CAVOK 08/06 Q1028
18:20
V
8 °C 10 km+ - 180° 180° 7 kt METAR EDLV 261720Z 18007KT CAVOK 08/06 Q1028
17:50
V
8 °C 10 km+ - 180° 180° 7 kt METAR EDLV 261650Z 18007KT CAVOK 08/07 Q1028
17:20
V
8 °C 10 km+ - 180° 180° 7 kt METAR EDLV 261620Z 18007KT 150V210 CAVOK 08/06 Q1028
16:50
V
9 °C 10 km+ - 170° 170° 7 kt METAR EDLV 261550Z 17007KT CAVOK 09/07 Q1028
16:20
V
10 °C 10 km+ - 180° 180° 6 kt METAR EDLV 261520Z 18006KT CAVOK 10/07 Q1028
15:50
V
10 °C 10 km+ - 170° 170° 6 kt METAR EDLV 261450Z 17006KT 150V210 CAVOK 10/07 Q1028
15:20
V
9 °C 10 km+ - 180° 180° 5 kt METAR EDLV 261420Z 18005KT CAVOK 09/07 Q1028
14:50
V
9 °C 10 km+ - 180° 180° 6 kt METAR EDLV 261350Z 18006KT CAVOK 09/07 Q1028
14:20
V
10 °C 10 km+ - 190° 190° 8 kt METAR EDLV 261320Z 19008KT CAVOK 10/07 Q1029
13:50
V
10 °C 10 km+ - 190° 190° 7 kt METAR EDLV 261250Z 19007KT CAVOK 10/08 Q1029
13:20
V
9 °C 10 km+ - 190° 190° 6 kt METAR EDLV 261220Z 19006KT CAVOK 09/08 Q1029
12:50
V
8 °C 9 km - 180° 180° 6 kt METAR EDLV 261150Z 18006KT 9000 NSC 08/07 Q1029
12:20
V
8 °C 9 km - 180° 180° 6 kt METAR EDLV 261120Z 18006KT 9000 NSC 08/07 Q1029
11:50
V
7 °C 8 km - 190° 190° 6 kt METAR EDLV 261050Z 19006KT 8000 FEW027 07/07 Q1029
11:20
M
7 °C 7 km - 190° 190° 5 kt METAR EDLV 261020Z 19005KT 7000 FEW003 07/06 Q1029
10:50
M
6 °C 5 km - 170° 170° 6 kt METAR EDLV 260950Z 17006KT 5000 BR SCT001 06/06 Q1029
10:20
L
5 °C 800 m 500 ft 170° 170° 6 kt METAR EDLV 260920Z 17006KT 140V200 0900 0800 R27/1300U FG SCT001 OVC005 05/05 Q1029
09:50
L
4 °C 1,1 km 200 ft Var 000° 0 kt METAR EDLV 260850Z /////KT ///V/// 1200 1100 R27/1600D BR BKN002 04/04 Q1029
09:20
I
4 °C 4,4 km - 180° 180° 5 kt METAR EDLV 260820Z 18005KT 4400 BR FEW002 04/04 Q1029
08:50
I
4 °C 3,7 km - 180° 180° 5 kt METAR EDLV 260750Z 18005KT 3700 BR FEW002 04/04 Q1028
08:20
M
4 °C 5 km - 190° 190° 5 kt METAR EDLV 260720Z 19005KT 5000 BR FEW004 04/04 Q1028
07:50
M
4 °C 5 km - 190° 190° 5 kt METAR EDLV 260650Z 19005KT 5000 BR FEW016 04/03 Q1028
07:20
I
4 °C 4,6 km - 180° 180° 5 kt METAR EDLV 260620Z 18005KT 160V230 4600 BR FEW002 04/03 Q1028
06:50
I
4 °C 4,4 km - 180° 180° 5 kt METAR EDLV 260550Z 18005KT 4400 BR FEW002 04/03 Q1028
06:20
M
4 °C 5 km - 180° 180° 4 kt METAR EDLV 260520Z 18004KT 5000 BR FEW001 04/04 Q1027
05:50
I
5 °C 4,8 km - 200° 200° 3 kt METAR EDLV 260450Z 20003KT 4800 BR FEW007 SCT028 05/04 Q1027
05:20
M
5 °C 5 km - 210° 210° 4 kt METAR EDLV 260420Z 21004KT 5000 BR FEW027 05/04 Q1027
04:50
M
5 °C 5 km - 220° 220° 5 kt METAR EDLV 260350Z 22005KT 5000 BR NSC 05/04 Q1027
04:20
M
5 °C 6 km - 220° 220° 5 kt METAR EDLV 260320Z AUTO 22005KT 6000 // NCD 05/04 Q1026
03:50
M
5 °C 5 km - 210° 210° 3 kt METAR EDLV 260250Z AUTO 21003KT 5000 // NCD 05/04 Q1026
03:20
M
5 °C 6 km - 190° 190° 3 kt METAR EDLV 260220Z AUTO 19003KT 6000 // NCD 05/04 Q1026
02:50
M
5 °C 7 km - 210° 210° 5 kt METAR EDLV 260150Z AUTO 21005KT 7000 // NCD 05/04 Q1026
02:20
M
5 °C 7 km - 210° 210° 5 kt METAR EDLV 260120Z AUTO 21005KT 7000 // NCD 05/05 Q1026
01:50
V
6 °C 8 km - 230° 230° 5 kt METAR EDLV 260050Z AUTO 23005KT 8000 // NCD 06/05 Q1026
01:20
M
6 °C 7 km - 230° 230° 5 kt METAR EDLV 260020Z AUTO 23005KT 7000 // NCD 06/05 Q1026
00:50
M
6 °C 6 km - 230° 230° 5 kt METAR EDLV 252350Z AUTO 23005KT 6000 // NCD 06/05 Q1025
00:20
M
6 °C 6 km - 230° 230° 5 kt METAR EDLV 252320Z AUTO 23005KT 6000 // NCD 06/05 Q1025

25 novembre 2022

Tempo Codice Tempo metereologico Temp. Vista Base nuvolosa Vento METAR/SPECI
23:50
V
6 °C 8 km - 230° 230° 6 kt METAR EDLV 252250Z 23006KT 8000 NSC 06/06 Q1025
23:20
V
7 °C 9 km - 230° 230° 6 kt METAR EDLV 252220Z 23006KT 9000 FEW028 07/06 Q1024
22:50
M
7 °C 9 km 2.600 ft 230° 230° 5 kt METAR EDLV 252150Z 23005KT 9000 BKN026 07/06 Q1024
22:20
V
7 °C 10 km+ - 230° 230° 4 kt METAR EDLV 252120Z 23004KT 9999 FEW026 07/06 Q1024
21:50
V
7 °C 10 km+ - 230° 230° 5 kt METAR EDLV 252050Z 23005KT CAVOK 07/06 Q1023
21:20
V
7 °C 10 km+ - 240° 240° 4 kt METAR EDLV 252020Z 24004KT CAVOK 07/06 Q1023
20:50
V
8 °C 10 km+ - 250° 250° 5 kt METAR EDLV 251950Z 25005KT CAVOK 08/07 Q1022
20:20
V
8 °C 10 km+ - 240° 240° 4 kt METAR EDLV 251920Z 24004KT CAVOK 08/07 Q1022
19:50
V
8 °C 10 km+ - 240° 240° 6 kt METAR EDLV 251850Z 24006KT 9999 FEW041 08/07 Q1021
19:20
V
9 °C 10 km+ - 250° 250° 5 kt METAR EDLV 251820Z 25005KT 9999 FEW019 09/07 Q1021
18:50
M
9 °C 10 km+ 2.000 ft 240° 240° 5 kt METAR EDLV 251750Z 24005KT 9999 BKN020 BKN049 09/07 Q1020
18:20
V
9 °C 10 km+ 3.300 ft 250° 250° 5 kt METAR EDLV 251720Z 25005KT 9999 FEW021 SCT025 BKN033 09/07 Q1020
17:50
V
9 °C 10 km+ - 230° 230° 5 kt METAR EDLV 251650Z 23005KT 9999 FEW028 09/07 Q1019
17:20
V
10 °C 10 km+ - 220° 220° 5 kt METAR EDLV 251620Z 22005KT 9999 FEW023 10/07 Q1019
16:50
V
11 °C 10 km+ - 240° 240° 6 kt METAR EDLV 251550Z 24006KT 9999 SCT025 11/07 Q1018
16:20
V
11 °C 10 km+ - 230° 230° 5 kt METAR EDLV 251520Z 23005KT 9999 FEW026 SCT039 11/07 Q1018
15:50
M
11 °C 10 km+ 2.600 ft 230° 230° 6 kt METAR EDLV 251450Z 23006KT 9999 BKN026 BKN038 11/07 Q1017
15:20
M
11 °C 10 km+ 2.600 ft 240° 240° 7 kt METAR EDLV 251420Z 24007KT 9999 BKN026 BKN031 11/07 Q1017
14:50
M
12 °C 10 km+ 2.500 ft 250° 250° 9 kt METAR EDLV 251350Z 25009KT 9999 BKN025 12/07 Q1017
14:20
M
12 °C 10 km+ 2.500 ft 240° 240° 8 kt METAR EDLV 251320Z 24008KT 9999 BKN025 12/07 Q1016
13:50
M
12 °C 10 km+ 2.400 ft 240° 240° 7 kt METAR EDLV 251250Z 24007KT 9999 FEW020 BKN024 12/08 Q1016
13:20
V
12 °C 10 km+ - 230° 230° 8 kt METAR EDLV 251220Z 23008KT 190V250 9999 FEW019 12/08 Q1016
12:50
V
11 °C 10 km+ - 230° 230° 9 kt METAR EDLV 251150Z 23009KT 9999 FEW020 11/08 Q1015
12:20
V
11 °C 10 km+ - 220° 220° 9 kt METAR EDLV 251120Z 22009KT CAVOK 11/08 Q1015
11:50
V
11 °C 10 km+ - 230° 230° 9 kt METAR EDLV 251050Z 23009KT CAVOK 11/08 Q1015
11:20
V
10 °C 10 km+ - 230° 230° 9 kt METAR EDLV 251020Z 23009KT 200V260 CAVOK 10/08 Q1014
10:50
V
10 °C 10 km+ - 220° 220° 10 kt METAR EDLV 250950Z 22010KT CAVOK 10/07 Q1014
10:20
V
9 °C 10 km+ - 230° 230° 8 kt METAR EDLV 250920Z 23008KT 190V250 9999 FEW011 09/07 Q1014
09:50
V
9 °C 10 km+ - 210° 210° 8 kt METAR EDLV 250850Z 21008KT 9999 FEW010 09/07 Q1013
09:20
V
8 °C 10 km+ - 200° 200° 6 kt METAR EDLV 250820Z 20006KT 9999 FEW012 08/07 Q1013
08:50
V
8 °C 10 km+ - 200° 200° 6 kt METAR EDLV 250750Z 20006KT CAVOK 08/07 Q1012
08:20
V
8 °C 10 km+ - 180° 180° 6 kt METAR EDLV 250720Z 18006KT 9999 FEW042 08/07 Q1012
07:50
V
8 °C 10 km+ - 180° 180° 5 kt METAR EDLV 250650Z 18005KT 9999 FEW026 SCT038 08/07 Q1012
07:20
V
8 °C 10 km+ - 180° 180° 5 kt METAR EDLV 250620Z 18005KT 9999 FEW026 SCT041 08/07 Q1011
06:50
V
9 °C 10 km+ 4.100 ft 180° 180° 6 kt METAR EDLV 250550Z 18006KT 9999 -RA OVC041 09/08 Q1011
06:20
V
9 °C 10 km+ 4.800 ft 180° 180° 6 kt METAR EDLV 250520Z 18006KT 160V240 9999 BKN048 09/08 Q1011
05:50
V
9 °C 10 km+ - 170° 170° 6 kt METAR EDLV 250450Z 17006KT CAVOK 09/08 Q1010
05:20
V
8 °C 9 km - 140° 140° 9 kt METAR EDLV 250420Z 14009KT 9000 -RA FEW047 08/08 Q1010
04:50
V
8 °C 9 km 4.300 ft 160° 160° 6 kt METAR EDLV 250350Z 16006KT 9000 SCT026 BKN043 OVC050 08/07 Q1010
04:20
M
8 °C 9 km 2.200 ft 170° 170° 6 kt METAR EDLV 250320Z AUTO 17006KT 9000 // BKN022/// OVC041/// 08/07 Q1010
03:50
M
8 °C 10 km+ 2.400 ft 150° 150° 7 kt METAR EDLV 250250Z AUTO 15007KT 9999 // OVC024/// 08/07 Q1010
03:20
V
8 °C 10 km+ 5.400 ft 150° 150° 7 kt METAR EDLV 250220Z AUTO 15007KT 9999 // SCT027/// SCT033/// OVC054/// 08/06 Q1010
02:50
V
8 °C 10 km+ 6.500 ft 150° 150° 7 kt METAR EDLV 250150Z AUTO 15007KT 9999 // FEW055/// BKN065/// OVC077/// 08/06 Q1010
02:20
V
8 °C 10 km+ 6.600 ft 150° 150° 8 kt METAR EDLV 250120Z AUTO 15008KT 9999 // FEW058/// BKN066/// OVC078/// 08/06 Q1009
01:50
V
8 °C 10 km+ 6.000 ft 150° 150° 8 kt METAR EDLV 250050Z AUTO 15008KT 9999 // OVC060/// 08/06 Q1009
01:20
V
8 °C 10 km+ 5.200 ft 150° 150° 8 kt METAR EDLV 250020Z AUTO 15008KT 9999 // BKN052/// OVC068/// 08/05 Q1010
00:50
V
8 °C 10 km+ 5.800 ft 140° 140° 8 kt METAR EDLV 242350Z AUTO 14008KT 9999 // SCT051/// BKN058/// OVC140/// 08/05 Q1010
00:20
V
8 °C 10 km+ 20.000 ft 140° 140° 7 kt METAR EDLV 242320Z AUTO 14007KT 9999 // FEW110/// BKN200/// 08/05 Q1010

24 novembre 2022

Tempo Codice Tempo metereologico Temp. Vista Base nuvolosa Vento METAR/SPECI
23:50
V
8 °C 10 km+ - 160° 160° 8 kt METAR EDLV 242250Z 16008KT CAVOK 08/05 Q1010
23:20
V
8 °C 10 km+ - 150° 150° 8 kt METAR EDLV 242220Z 15008KT CAVOK 08/05 Q1010
22:50
V
8 °C 10 km+ - 150° 150° 8 kt METAR EDLV 242150Z 15008KT CAVOK 08/05 Q1011
22:20
V
7 °C 10 km+ - 150° 150° 7 kt METAR EDLV 242120Z 15007KT 9999 FEW045 07/04 Q1011
21:50
V
7 °C 10 km+ - 160° 160° 8 kt METAR EDLV 242050Z 16008KT CAVOK 07/04 Q1011
21:20
V
8 °C 10 km+ - 160° 160° 8 kt METAR EDLV 242020Z 16008KT CAVOK 08/05 Q1011
20:50
V
8 °C 10 km+ - 170° 170° 7 kt METAR EDLV 241950Z 17007KT CAVOK 08/05 Q1011
20:20
V
8 °C 10 km+ - 170° 170° 9 kt METAR EDLV 241920Z 17009KT CAVOK 08/05 Q1011
19:50
V
9 °C 10 km+ - 180° 180° 7 kt METAR EDLV 241850Z 18007KT CAVOK 09/05 Q1011
19:20
V
8 °C 10 km+ - 180° 180° 8 kt METAR EDLV 241820Z 18008KT CAVOK 08/06 Q1011
18:50
V
9 °C 10 km+ - 180° 180° 7 kt METAR EDLV 241750Z 18007KT CAVOK 09/06 Q1011
18:20
V
8 °C 10 km+ - 160° 160° 6 kt METAR EDLV 241720Z 16006KT CAVOK 08/06 Q1011
17:50
V
8 °C 10 km+ - 170° 170° 5 kt METAR EDLV 241650Z 17005KT CAVOK 08/06 Q1011
17:20
V
9 °C 10 km+ - 170° 170° 5 kt METAR EDLV 241620Z 17005KT CAVOK 09/06 Q1011
16:50
V
9 °C 10 km+ - 180° 180° 5 kt METAR EDLV 241550Z 18005KT CAVOK 09/06 Q1011
16:20
V
10 °C 10 km+ - 170° 170° 5 kt METAR EDLV 241520Z 17005KT CAVOK 10/06 Q1011
15:50
V
11 °C 10 km+ - 180° 180° 5 kt METAR EDLV 241450Z 18005KT 160V220 CAVOK 11/07 Q1010
15:20
V
11 °C 10 km+ - 200° 200° 6 kt METAR EDLV 241420Z 20006KT 160V220 CAVOK 11/07 Q1011
14:50
V
11 °C 10 km+ - 200° 200° 7 kt METAR EDLV 241350Z 20007KT CAVOK 11/07 Q1011
14:20
V
11 °C 10 km+ - 220° 220° 9 kt METAR EDLV 241320Z 22009KT 9999 FEW025 11/07 Q1011
13:50
V
11 °C 10 km+ - 240° 240° 10 kt METAR EDLV 241250Z 24010KT CAVOK 11/07 Q1010
13:20
V
11 °C 10 km+ - 230° 230° 9 kt METAR EDLV 241220Z 23009KT CAVOK 11/07 Q1010
12:50
V
11 °C 10 km+ - 230° 230° 11 kt METAR EDLV 241150Z 23011KT CAVOK 11/07 Q1010
12:20
V
10 °C 10 km+ - 230° 230° 11 kt METAR EDLV 241120Z 23011KT 9999 FEW022 10/07 Q1010
11:50
V
10 °C 10 km+ - 230° 230° 12 kt METAR EDLV 241050Z 23012KT 9999 FEW017 10/07 Q1010
11:20
V
10 °C 10 km+ - 230° 230° 12 kt METAR EDLV 241020Z 23012KT CAVOK 10/07 Q1010
10:50
V
9 °C 10 km+ - 230° 230° 10 kt METAR EDLV 240950Z 23010KT 9999 FEW016 09/06 Q1009

Noi e le terze parti seguiamo il tuo comportamento su internet con i cookie. Se continui, riteniamo che tu sia d'accordo con la nostra Politica sui cookie.